sensor_id;sensor_type;location;lat;lon;timestamp;pressure;altitude;pressure_sealevel;temperature;humidity
63285;BME280;49409;55.708;37.522;2022-12-18T00:01:49;98829.75;;;1.47;55.33
63285;BME280;49409;55.708;37.522;2022-12-18T00:04:20;98835.88;;;1.44;56.24
63285;BME280;49409;55.708;37.522;2022-12-18T00:06:46;98824.31;;;1.47;55.61
63285;BME280;49409;55.708;37.522;2022-12-18T00:09:12;98805.66;;;1.42;55.38
63285;BME280;49409;55.708;37.522;2022-12-18T00:11:37;98821.94;;;1.42;55.32
63285;BME280;49409;55.708;37.522;2022-12-18T00:14:03;98791.38;;;1.14;55.35
63285;BME280;49409;55.708;37.522;2022-12-18T00:16:29;98812.03;;;1.26;55.58
63285;BME280;49409;55.708;37.522;2022-12-18T00:18:59;98811.84;;;1.38;55.51
63285;BME280;49409;55.708;37.522;2022-12-18T00:21:26;98789.84;;;1.13;55.81
63285;BME280;49409;55.708;37.522;2022-12-18T00:23:52;98782.94;;;1.19;55.70
63285;BME280;49409;55.708;37.522;2022-12-18T00:26:26;98778.34;;;1.24;55.64
63285;BME280;49409;55.708;37.522;2022-12-18T00:28:52;98799.31;;;1.30;55.67
63285;BME280;49409;55.708;37.522;2022-12-18T00:31:23;98783.72;;;1.20;55.83
63285;BME280;49409;55.708;37.522;2022-12-18T00:33:48;98766.22;;;1.14;55.59
63285;BME280;49409;55.708;37.522;2022-12-18T00:36:16;98775.28;;;1.25;55.66
63285;BME280;49409;55.708;37.522;2022-12-18T00:38:43;98783.00;;;1.23;56.55
63285;BME280;49409;55.708;37.522;2022-12-18T00:41:10;98789.75;;;1.36;56.13
63285;BME280;49409;55.708;37.522;2022-12-18T00:43:36;98758.66;;;1.27;55.50
63285;BME280;49409;55.708;37.522;2022-12-18T00:46:03;98784.78;;;1.46;55.75
63285;BME280;49409;55.708;37.522;2022-12-18T00:48:29;98790.97;;;1.43;55.65
63285;BME280;49409;55.708;37.522;2022-12-18T00:50:54;98778.47;;;1.34;55.62
63285;BME280;49409;55.708;37.522;2022-12-18T00:53:20;98779.94;;;1.28;55.95
63285;BME280;49409;55.708;37.522;2022-12-18T00:55:46;98761.81;;;1.32;55.87
63285;BME280;49409;55.708;37.522;2022-12-18T00:58:12;98760.75;;;1.41;56.00
63285;BME280;49409;55.708;37.522;2022-12-18T01:00:38;98739.00;;;1.37;55.45
63285;BME280;49409;55.708;37.522;2022-12-18T01:03:04;98721.88;;;1.29;55.72
63285;BME280;49409;55.708;37.522;2022-12-18T01:05:30;98724.59;;;1.29;55.27
63285;BME280;49409;55.708;37.522;2022-12-18T01:07:56;98739.69;;;1.30;55.89
63285;BME280;49409;55.708;37.522;2022-12-18T01:10:22;98733.44;;;1.26;55.74
63285;BME280;49409;55.708;37.522;2022-12-18T01:12:47;98709.41;;;1.21;55.43
63285;BME280;49409;55.708;37.522;2022-12-18T01:15:14;98725.88;;;1.39;55.63
63285;BME280;49409;55.708;37.522;2022-12-18T01:17:40;98715.06;;;1.43;54.98
63285;BME280;49409;55.708;37.522;2022-12-18T01:20:06;98713.94;;;1.47;55.37
63285;BME280;49409;55.708;37.522;2022-12-18T01:22:36;98714.22;;;1.35;55.49
63285;BME280;49409;55.708;37.522;2022-12-18T01:25:02;98707.78;;;1.16;56.04
63285;BME280;49409;55.708;37.522;2022-12-18T01:27:27;98721.06;;;1.25;55.38
63285;BME280;49409;55.708;37.522;2022-12-18T01:29:53;98708.75;;;1.31;54.86
63285;BME280;49409;55.708;37.522;2022-12-18T01:32:18;98717.94;;;1.23;55.83
63285;BME280;49409;55.708;37.522;2022-12-18T01:34:44;98718.69;;;1.20;55.72
63285;BME280;49409;55.708;37.522;2022-12-18T01:37:10;98729.75;;;1.42;55.50
63285;BME280;49409;55.708;37.522;2022-12-18T01:39:35;98711.13;;;1.36;55.43
63285;BME280;49409;55.708;37.522;2022-12-18T01:42:14;98722.06;;;1.47;56.01
63285;BME280;49409;55.708;37.522;2022-12-18T01:47:33;98726.06;;;1.57;55.44
63285;BME280;49409;55.708;37.522;2022-12-18T01:50:12;98710.00;;;1.41;54.93
63285;BME280;49409;55.708;37.522;2022-12-18T01:55:47;98727.34;;;1.33;55.85
63285;BME280;49409;55.708;37.522;2022-12-18T01:58:14;98704.50;;;1.00;55.51
63285;BME280;49409;55.708;37.522;2022-12-18T02:00:40;98720.88;;;1.07;55.64
63285;BME280;49409;55.708;37.522;2022-12-18T02:03:05;98720.00;;;0.99;56.50
63285;BME280;49409;55.708;37.522;2022-12-18T02:24:41;98735.09;;;1.01;55.96
63285;BME280;49409;55.708;37.522;2022-12-18T02:27:11;98730.41;;;0.97;56.14
63285;BME280;49409;55.708;37.522;2022-12-18T02:29:40;98722.81;;;1.07;55.74
63285;BME280;49409;55.708;37.522;2022-12-18T02:32:14;98700.47;;;0.87;55.73
63285;BME280;49409;55.708;37.522;2022-12-18T02:34:43;98726.94;;;0.97;56.06
63285;BME280;49409;55.708;37.522;2022-12-18T02:37:13;98718.81;;;1.01;55.66
63285;BME280;49409;55.708;37.522;2022-12-18T02:39:42;98727.59;;;0.90;55.55
63285;BME280;49409;55.708;37.522;2022-12-18T02:42:10;98719.00;;;0.81;55.52
63285;BME280;49409;55.708;37.522;2022-12-18T02:44:47;98721.53;;;1.01;55.26
63285;BME280;49409;55.708;37.522;2022-12-18T02:47:15;98724.00;;;0.79;56.02
63285;BME280;49409;55.708;37.522;2022-12-18T03:00:42;98731.38;;;0.82;55.34
63285;BME280;49409;55.708;37.522;2022-12-18T03:03:15;98697.88;;;0.64;55.58
63285;BME280;49409;55.708;37.522;2022-12-18T03:05:50;98722.59;;;0.62;56.09
63285;BME280;49409;55.708;37.522;2022-12-18T03:08:23;98709.53;;;0.68;55.88
63285;BME280;49409;55.708;37.522;2022-12-18T03:10:53;98706.63;;;0.53;55.61
63285;BME280;49409;55.708;37.522;2022-12-18T03:13:34;98714.84;;;0.61;56.31
63285;BME280;49409;55.708;37.522;2022-12-18T03:16:03;98720.19;;;0.53;56.17
63285;BME280;49409;55.708;37.522;2022-12-18T03:18:36;98710.94;;;0.58;56.22
63285;BME280;49409;55.708;37.522;2022-12-18T03:21:06;98696.84;;;0.45;56.47
63285;BME280;49409;55.708;37.522;2022-12-18T03:23:35;98714.31;;;0.78;56.08
63285;BME280;49409;55.708;37.522;2022-12-18T03:26:09;98713.59;;;0.81;55.42
63285;BME280;49409;55.708;37.522;2022-12-18T03:28:39;98722.84;;;0.80;54.69
63285;BME280;49409;55.708;37.522;2022-12-18T03:31:10;98735.91;;;0.74;55.39
63285;BME280;49409;55.708;37.522;2022-12-18T03:36:05;98729.38;;;0.49;56.15
63285;BME280;49409;55.708;37.522;2022-12-18T03:38:30;98708.50;;;0.49;55.94
63285;BME280;49409;55.708;37.522;2022-12-18T03:41:05;98722.56;;;0.58;56.45
63285;BME280;49409;55.708;37.522;2022-12-18T03:44:07;98729.94;;;0.62;57.29
63285;BME280;49409;55.708;37.522;2022-12-18T03:46:56;98699.75;;;0.59;56.15
63285;BME280;49409;55.708;37.522;2022-12-18T03:49:25;98712.59;;;0.66;55.40
63285;BME280;49409;55.708;37.522;2022-12-18T03:54:35;98715.88;;;0.79;55.20
63285;BME280;49409;55.708;37.522;2022-12-18T03:57:09;98699.78;;;0.63;55.65
63285;BME280;49409;55.708;37.522;2022-12-18T03:59:37;98708.06;;;0.74;55.09
63285;BME280;49409;55.708;37.522;2022-12-18T04:02:04;98720.66;;;0.89;54.93
63285;BME280;49409;55.708;37.522;2022-12-18T04:04:34;98713.31;;;0.63;55.32
63285;BME280;49409;55.708;37.522;2022-12-18T04:07:01;98710.25;;;0.65;55.76
63285;BME280;49409;55.708;37.522;2022-12-18T04:09:28;98697.63;;;0.46;55.50
63285;BME280;49409;55.708;37.522;2022-12-18T04:11:55;98724.84;;;0.56;55.71
63285;BME280;49409;55.708;37.522;2022-12-18T04:14:20;98722.44;;;0.51;55.16
63285;BME280;49409;55.708;37.522;2022-12-18T04:16:46;98723.72;;;0.57;55.10
63285;BME280;49409;55.708;37.522;2022-12-18T04:19:12;98767.09;;;0.91;54.46
63285;BME280;49409;55.708;37.522;2022-12-18T04:21:37;98723.41;;;0.36;54.80
63285;BME280;49409;55.708;37.522;2022-12-18T04:24:03;98764.09;;;0.70;55.16
63285;BME280;49409;55.708;37.522;2022-12-18T04:26:28;98767.31;;;0.52;55.83
63285;BME280;49409;55.708;37.522;2022-12-18T04:28:54;98753.50;;;0.57;55.40
63285;BME280;49409;55.708;37.522;2022-12-18T04:31:20;98766.88;;;0.73;55.23
63285;BME280;49409;55.708;37.522;2022-12-18T04:33:45;98790.13;;;0.78;54.54
63285;BME280;49409;55.708;37.522;2022-12-18T04:36:11;98800.44;;;0.42;55.58
63285;BME280;49409;55.708;37.522;2022-12-18T04:38:37;98790.31;;;0.39;55.92
63285;BME280;49409;55.708;37.522;2022-12-18T04:41:03;98745.34;;;0.31;55.59
63285;BME280;49409;55.708;37.522;2022-12-18T04:43:29;98797.72;;;0.69;54.95
63285;BME280;49409;55.708;37.522;2022-12-18T04:46:04;98768.03;;;0.49;55.27
63285;BME280;49409;55.708;37.522;2022-12-18T04:48:29;98819.66;;;0.60;55.54
63285;BME280;49409;55.708;37.522;2022-12-18T04:50:55;98798.00;;;0.37;55.28
63285;BME280;49409;55.708;37.522;2022-12-18T04:53:20;98799.59;;;0.38;55.62
63285;BME280;49409;55.708;37.522;2022-12-18T04:55:46;98810.00;;;0.63;55.52
63285;BME280;49409;55.708;37.522;2022-12-18T04:58:11;98810.34;;;0.34;55.93
63285;BME280;49409;55.708;37.522;2022-12-18T05:00:37;98783.50;;;0.22;56.28
63285;BME280;49409;55.708;37.522;2022-12-18T05:03:03;98793.00;;;0.12;56.68
63285;BME280;49409;55.708;37.522;2022-12-18T05:05:28;98800.69;;;0.10;56.77
63285;BME280;49409;55.708;37.522;2022-12-18T05:07:54;98807.22;;;0.09;57.01
63285;BME280;49409;55.708;37.522;2022-12-18T05:10:19;98807.88;;;0.26;56.40
63285;BME280;49409;55.708;37.522;2022-12-18T05:12:44;98811.13;;;0.12;56.52
63285;BME280;49409;55.708;37.522;2022-12-18T05:15:27;98814.94;;;0.30;56.34
63285;BME280;49409;55.708;37.522;2022-12-18T05:17:53;98803.00;;;0.35;56.50
63285;BME280;49409;55.708;37.522;2022-12-18T05:20:18;98814.63;;;0.12;56.56
63285;BME280;49409;55.708;37.522;2022-12-18T05:22:44;98809.53;;;-0.12;57.28
63285;BME280;49409;55.708;37.522;2022-12-18T05:25:10;98836.31;;;-0.07;57.59
63285;BME280;49409;55.708;37.522;2022-12-18T05:27:35;98834.44;;;-0.03;57.05
63285;BME280;49409;55.708;37.522;2022-12-18T05:30:01;98845.22;;;0.16;56.66
63285;BME280;49409;55.708;37.522;2022-12-18T05:32:26;98823.56;;;-0.07;56.80
63285;BME280;49409;55.708;37.522;2022-12-18T05:34:52;98837.22;;;0.01;56.87
63285;BME280;49409;55.708;37.522;2022-12-18T05:37:17;98852.59;;;0.19;56.70
63285;BME280;49409;55.708;37.522;2022-12-18T05:39:44;98855.81;;;0.25;56.69
63285;BME280;49409;55.708;37.522;2022-12-18T05:42:09;98871.72;;;0.07;56.58
63285;BME280;49409;55.708;37.522;2022-12-18T05:44:35;98860.91;;;-0.12;56.98
63285;BME280;49409;55.708;37.522;2022-12-18T05:47:00;98850.34;;;-0.21;57.03
63285;BME280;49409;55.708;37.522;2022-12-18T05:49:26;98858.84;;;0.01;56.90
63285;BME280;49409;55.708;37.522;2022-12-18T05:51:51;98866.38;;;0.11;56.36
63285;BME280;49409;55.708;37.522;2022-12-18T05:54:17;98875.84;;;0.21;56.02
63285;BME280;49409;55.708;37.522;2022-12-18T05:56:42;98866.44;;;0.14;56.15
63285;BME280;49409;55.708;37.522;2022-12-18T05:59:08;98874.25;;;0.19;55.89
63285;BME280;49409;55.708;37.522;2022-12-18T06:01:34;98870.22;;;0.10;56.67
63285;BME280;49409;55.708;37.522;2022-12-18T06:03:59;98887.09;;;0.46;55.28
63285;BME280;49409;55.708;37.522;2022-12-18T06:06:27;98842.13;;;-0.05;55.80
63285;BME280;49409;55.708;37.522;2022-12-18T06:08:54;98876.44;;;0.10;56.38
63285;BME280;49409;55.708;37.522;2022-12-18T06:11:22;98905.09;;;0.15;56.33
63285;BME280;49409;55.708;37.522;2022-12-18T06:13:52;98904.63;;;-0.10;56.79
63285;BME280;49409;55.708;37.522;2022-12-18T06:16:18;98918.13;;;-0.10;56.68
63285;BME280;49409;55.708;37.522;2022-12-18T06:18:44;98916.34;;;0.17;56.54
63285;BME280;49409;55.708;37.522;2022-12-18T06:21:09;98912.94;;;0.20;56.21
63285;BME280;49409;55.708;37.522;2022-12-18T06:23:35;98934.91;;;0.38;55.77
63285;BME280;49409;55.708;37.522;2022-12-18T06:26:07;98928.94;;;0.29;55.76
63285;BME280;49409;55.708;37.522;2022-12-18T06:28:33;98929.16;;;0.20;56.03
63285;BME280;49409;55.708;37.522;2022-12-18T06:30:59;98948.00;;;0.36;56.04
63285;BME280;49409;55.708;37.522;2022-12-18T06:33:28;98903.91;;;-0.07;56.40
63285;BME280;49409;55.708;37.522;2022-12-18T06:35:54;98900.13;;;-0.03;55.55
63285;BME280;49409;55.708;37.522;2022-12-18T06:38:19;98947.47;;;0.07;56.18
63285;BME280;49409;55.708;37.522;2022-12-18T06:40:45;98949.75;;;0.05;55.78
63285;BME280;49409;55.708;37.522;2022-12-18T06:43:10;98962.56;;;0.08;55.77
63285;BME280;49409;55.708;37.522;2022-12-18T06:45:36;98973.22;;;0.21;55.83
63285;BME280;49409;55.708;37.522;2022-12-18T06:48:01;98978.56;;;0.36;55.26
63285;BME280;49409;55.708;37.522;2022-12-18T06:50:27;98984.03;;;0.40;54.97
63285;BME280;49409;55.708;37.522;2022-12-18T06:52:52;98963.97;;;0.22;54.44
63285;BME280;49409;55.708;37.522;2022-12-18T06:58:58;98980.06;;;0.34;54.70
63285;BME280;49409;55.708;37.522;2022-12-18T07:01:24;99008.75;;;0.38;55.30
63285;BME280;49409;55.708;37.522;2022-12-18T07:03:54;99000.72;;;0.42;55.20
63285;BME280;49409;55.708;37.522;2022-12-18T07:06:22;99018.94;;;0.06;55.13
63285;BME280;49409;55.708;37.522;2022-12-18T07:08:49;98987.59;;;0.05;55.29
63285;BME280;49409;55.708;37.522;2022-12-18T07:11:15;99012.81;;;0.09;54.92
63285;BME280;49409;55.708;37.522;2022-12-18T07:13:41;99001.00;;;0.17;54.38
63285;BME280;49409;55.708;37.522;2022-12-18T07:16:13;98986.47;;;0.26;53.81
63285;BME280;49409;55.708;37.522;2022-12-18T07:18:38;99028.91;;;0.41;53.92
63285;BME280;49409;55.708;37.522;2022-12-18T07:21:09;98985.34;;;0.07;53.72
63285;BME280;49409;55.708;37.522;2022-12-18T07:23:35;99037.94;;;0.49;53.71
63285;BME280;49409;55.708;37.522;2022-12-18T07:26:06;99050.28;;;0.46;53.56
63285;BME280;49409;55.708;37.522;2022-12-18T07:28:33;99040.66;;;0.49;53.43
63285;BME280;49409;55.708;37.522;2022-12-18T07:31:03;99061.38;;;0.61;53.23
63285;BME280;49409;55.708;37.522;2022-12-18T07:33:28;99051.13;;;0.50;53.49
63285;BME280;49409;55.708;37.522;2022-12-18T07:35:54;99040.56;;;0.65;52.81
63285;BME280;49409;55.708;37.522;2022-12-18T07:38:19;99059.44;;;0.61;53.03
63285;BME280;49409;55.708;37.522;2022-12-18T07:40:45;99034.13;;;0.50;53.24
63285;BME280;49409;55.708;37.522;2022-12-18T07:43:10;99052.41;;;0.56;53.49
63285;BME280;49409;55.708;37.522;2022-12-18T07:45:36;99042.72;;;0.55;52.98
63285;BME280;49409;55.708;37.522;2022-12-18T07:48:01;99072.94;;;0.57;53.08
63285;BME280;49409;55.708;37.522;2022-12-18T07:50:27;99068.50;;;0.49;53.40
63285;BME280;49409;55.708;37.522;2022-12-18T07:52:52;99027.50;;;0.08;53.88
63285;BME280;49409;55.708;37.522;2022-12-18T07:55:18;99035.97;;;0.46;52.58
63285;BME280;49409;55.708;37.522;2022-12-18T07:57:43;99060.38;;;0.49;53.20
63285;BME280;49409;55.708;37.522;2022-12-18T08:00:09;99062.66;;;0.47;53.07
63285;BME280;49409;55.708;37.522;2022-12-18T08:02:35;99069.94;;;0.63;52.88
63285;BME280;49409;55.708;37.522;2022-12-18T08:05:00;99079.75;;;0.71;52.14
63285;BME280;49409;55.708;37.522;2022-12-18T08:07:26;99077.88;;;0.75;51.84
63285;BME280;49409;55.708;37.522;2022-12-18T08:09:51;99026.63;;;0.24;52.75
63285;BME280;49409;55.708;37.522;2022-12-18T08:12:17;99090.53;;;0.67;53.08
63285;BME280;49409;55.708;37.522;2022-12-18T08:14:42;99099.22;;;0.76;52.37
63285;BME280;49409;55.708;37.522;2022-12-18T08:17:08;99094.94;;;0.36;53.23
63285;BME280;49409;55.708;37.522;2022-12-18T08:19:33;99106.56;;;0.76;52.44
63285;BME280;49409;55.708;37.522;2022-12-18T08:21:59;99114.31;;;0.97;52.17
63285;BME280;49409;55.708;37.522;2022-12-18T08:24:24;99127.28;;;0.88;52.22
63285;BME280;49409;55.708;37.522;2022-12-18T08:26:50;99130.06;;;0.91;51.88
63285;BME280;49409;55.708;37.522;2022-12-18T08:29:16;99142.75;;;0.87;52.03
63285;BME280;49409;55.708;37.522;2022-12-18T08:31:42;99120.50;;;0.58;52.26
63285;BME280;49409;55.708;37.522;2022-12-18T08:34:07;99123.94;;;0.55;52.82
63285;BME280;49409;55.708;37.522;2022-12-18T08:36:33;99101.13;;;0.37;52.89
63285;BME280;49409;55.708;37.522;2022-12-18T08:38:58;99116.03;;;0.47;52.97
63285;BME280;49409;55.708;37.522;2022-12-18T08:41:24;99128.91;;;0.73;52.46
63285;BME280;49409;55.708;37.522;2022-12-18T08:43:50;99114.81;;;0.44;53.56
63285;BME280;49409;55.708;37.522;2022-12-18T08:46:39;99130.56;;;0.77;52.87
63285;BME280;49409;55.708;37.522;2022-12-18T08:49:06;99151.91;;;0.79;52.67
63285;BME280;49409;55.708;37.522;2022-12-18T08:51:32;99129.78;;;0.77;52.74
63285;BME280;49409;55.708;37.522;2022-12-18T08:53:58;99132.78;;;0.72;52.69
63285;BME280;49409;55.708;37.522;2022-12-18T08:56:23;99142.81;;;0.91;52.79
63285;BME280;49409;55.708;37.522;2022-12-18T08:58:54;99154.03;;;0.89;53.20
63285;BME280;49409;55.708;37.522;2022-12-18T09:01:20;99131.94;;;0.68;52.76
63285;BME280;49409;55.708;37.522;2022-12-18T09:03:46;99156.72;;;0.89;53.06
63285;BME280;49409;55.708;37.522;2022-12-18T09:06:14;99143.88;;;0.86;53.56
63285;BME280;49409;55.708;37.522;2022-12-18T09:08:41;99135.91;;;0.54;53.24
63285;BME280;49409;55.708;37.522;2022-12-18T09:11:13;99136.41;;;0.60;53.84
63285;BME280;49409;55.708;37.522;2022-12-18T09:13:39;99155.38;;;0.60;54.02
63285;BME280;49409;55.708;37.522;2022-12-18T09:16:05;99139.81;;;0.57;53.76
63285;BME280;49409;55.708;37.522;2022-12-18T09:18:30;99186.38;;;0.82;53.71
63285;BME280;49409;55.708;37.522;2022-12-18T09:20:56;99185.94;;;0.80;53.99
63285;BME280;49409;55.708;37.522;2022-12-18T09:23:21;99188.94;;;0.94;53.71
63285;BME280;49409;55.708;37.522;2022-12-18T09:25:47;99181.31;;;1.00;52.86
63285;BME280;49409;55.708;37.522;2022-12-18T09:28:17;99188.81;;;0.87;54.07
63285;BME280;49409;55.708;37.522;2022-12-18T09:30:47;99189.84;;;0.83;54.30
63285;BME280;49409;55.708;37.522;2022-12-18T09:33:14;99187.31;;;0.90;53.59
63285;BME280;49409;55.708;37.522;2022-12-18T09:35:41;99200.19;;;0.77;53.91
63285;BME280;49409;55.708;37.522;2022-12-18T09:38:10;99202.47;;;0.94;53.38
63285;BME280;49409;55.708;37.522;2022-12-18T09:40:43;99197.84;;;1.14;52.86
63285;BME280;49409;55.708;37.522;2022-12-18T09:43:18;99240.84;;;1.16;54.42
63285;BME280;49409;55.708;37.522;2022-12-18T09:45:47;99221.88;;;0.96;53.49
63285;BME280;49409;55.708;37.522;2022-12-18T09:48:21;99222.53;;;1.09;53.87
63285;BME280;49409;55.708;37.522;2022-12-18T09:50:50;99233.78;;;0.92;53.98
63285;BME280;49409;55.708;37.522;2022-12-18T09:53:20;99234.56;;;0.92;54.52
63285;BME280;49409;55.708;37.522;2022-12-18T09:55:48;99215.31;;;0.78;53.68
63285;BME280;49409;55.708;37.522;2022-12-18T10:00:42;99240.72;;;0.89;54.16
63285;BME280;49409;55.708;37.522;2022-12-18T10:03:15;99242.28;;;1.10;54.06
63285;BME280;49409;55.708;37.522;2022-12-18T10:06:07;99240.28;;;0.87;55.28
63285;BME280;49409;55.708;37.522;2022-12-18T10:08:42;99252.53;;;1.01;54.52
63285;BME280;49409;55.708;37.522;2022-12-18T10:13:59;99255.69;;;1.22;54.63
63285;BME280;49409;55.708;37.522;2022-12-18T10:20:13;99245.78;;;1.30;54.26
63285;BME280;49409;55.708;37.522;2022-12-18T10:27:56;99230.09;;;0.65;55.38
63285;BME280;49409;55.708;37.522;2022-12-18T10:30:24;99256.16;;;0.89;54.96
63285;BME280;49409;55.708;37.522;2022-12-18T10:32:50;99261.38;;;0.97;54.45
63285;BME280;49409;55.708;37.522;2022-12-18T10:35:22;99263.66;;;0.95;55.19
63285;BME280;49409;55.708;37.522;2022-12-18T10:40:32;99242.19;;;0.87;54.70
63285;BME280;49409;55.708;37.522;2022-12-18T10:45:29;99274.94;;;0.97;54.75
63285;BME280;49409;55.708;37.522;2022-12-18T10:47:55;99260.00;;;0.88;54.67
63285;BME280;49409;55.708;37.522;2022-12-18T10:50:33;99264.09;;;0.97;54.75
63285;BME280;49409;55.708;37.522;2022-12-18T10:53:00;99273.13;;;0.86;54.47
63285;BME280;49409;55.708;37.522;2022-12-18T10:55:34;99301.53;;;1.11;54.02
63285;BME280;49409;55.708;37.522;2022-12-18T11:01:08;99310.28;;;0.85;55.77
63285;BME280;49409;55.708;37.522;2022-12-18T11:03:36;99301.34;;;0.85;54.87
63285;BME280;49409;55.708;37.522;2022-12-18T11:06:09;99331.53;;;1.03;54.84
63285;BME280;49409;55.708;37.522;2022-12-18T11:08:35;99309.59;;;0.56;55.06
63285;BME280;49409;55.708;37.522;2022-12-18T11:11:01;99313.25;;;0.80;54.35
63285;BME280;49409;55.708;37.522;2022-12-18T11:13:28;99317.88;;;0.79;54.36
63285;BME280;49409;55.708;37.522;2022-12-18T11:15:55;99300.50;;;0.65;54.40
63285;BME280;49409;55.708;37.522;2022-12-18T11:18:32;99313.88;;;0.73;55.46
63285;BME280;49409;55.708;37.522;2022-12-18T11:21:09;99331.44;;;0.79;55.65
63285;BME280;49409;55.708;37.522;2022-12-18T11:23:37;99335.22;;;0.94;54.98
63285;BME280;49409;55.708;37.522;2022-12-18T11:26:09;99323.41;;;1.03;54.47
63285;BME280;49409;55.708;37.522;2022-12-18T11:28:41;99322.06;;;0.93;54.91
63285;BME280;49409;55.708;37.522;2022-12-18T11:33:52;99358.63;;;1.03;54.82
63285;BME280;49409;55.708;37.522;2022-12-18T11:36:21;99348.22;;;1.05;53.89
63285;BME280;49409;55.708;37.522;2022-12-18T11:38:49;99340.72;;;0.98;54.90
63285;BME280;49409;55.708;37.522;2022-12-18T11:41:20;99314.03;;;0.65;55.75
63285;BME280;49409;55.708;37.522;2022-12-18T11:43:54;99347.31;;;0.81;55.88
63285;BME280;49409;55.708;37.522;2022-12-18T11:46:37;99357.44;;;0.84;56.94
63285;BME280;49409;55.708;37.522;2022-12-18T11:49:33;99356.47;;;0.92;55.34
63285;BME280;49409;55.708;37.522;2022-12-18T11:54:30;99373.28;;;0.50;56.38
63285;BME280;49409;55.708;37.522;2022-12-18T12:16:15;99427.44;;;0.66;56.59
63285;BME280;49409;55.708;37.522;2022-12-18T12:26:38;99437.84;;;0.96;55.70
63285;BME280;49409;55.708;37.522;2022-12-18T12:29:33;99460.47;;;0.72;55.92
63285;BME280;49409;55.708;37.522;2022-12-18T12:37:29;99459.72;;;0.59;55.59
63285;BME280;49409;55.708;37.522;2022-12-18T12:39:58;99447.94;;;0.51;55.82
63285;BME280;49409;55.708;37.522;2022-12-18T12:42:39;99463.41;;;0.67;56.04
63285;BME280;49409;55.708;37.522;2022-12-18T12:45:38;99466.31;;;0.74;55.34
63285;BME280;49409;55.708;37.522;2022-12-18T12:48:14;99463.16;;;0.72;54.82
63285;BME280;49409;55.708;37.522;2022-12-18T12:50:41;99483.97;;;0.68;55.32
63285;BME280;49409;55.708;37.522;2022-12-18T12:53:11;99436.47;;;0.26;55.82
63285;BME280;49409;55.708;37.522;2022-12-18T12:55:40;99500.50;;;0.50;56.46
63285;BME280;49409;55.708;37.522;2022-12-18T13:01:04;99521.59;;;0.29;57.59
63285;BME280;49409;55.708;37.522;2022-12-18T13:07:05;99521.19;;;0.43;56.92
63285;BME280;49409;55.708;37.522;2022-12-18T13:09:32;99536.53;;;0.67;56.05
63285;BME280;49409;55.708;37.522;2022-12-18T13:12:10;99511.34;;;0.50;56.02
63285;BME280;49409;55.708;37.522;2022-12-18T13:15:12;99539.41;;;0.58;56.04
63285;BME280;49409;55.708;37.522;2022-12-18T13:17:39;99506.34;;;0.36;56.08
63285;BME280;49409;55.708;37.522;2022-12-18T13:20:07;99529.03;;;0.32;56.65
63285;BME280;49409;55.708;37.522;2022-12-18T13:22:48;99527.25;;;0.52;56.07
63285;BME280;49409;55.708;37.522;2022-12-18T13:25:34;99542.50;;;0.44;56.81
63285;BME280;49409;55.708;37.522;2022-12-18T13:36:02;99580.75;;;0.71;55.57
63285;BME280;49409;55.708;37.522;2022-12-18T13:38:35;99558.53;;;0.65;55.32
63285;BME280;49409;55.708;37.522;2022-12-18T13:43:31;99576.31;;;0.50;55.44
63285;BME280;49409;55.708;37.522;2022-12-18T13:49:05;99588.72;;;0.51;56.69
63285;BME280;49409;55.708;37.522;2022-12-18T13:51:47;99603.88;;;0.40;56.72
63285;BME280;49409;55.708;37.522;2022-12-18T13:54:22;99619.53;;;0.75;56.51
63285;BME280;49409;55.708;37.522;2022-12-18T13:56:49;99631.75;;;0.69;56.46
63285;BME280;49409;55.708;37.522;2022-12-18T13:59:21;99604.28;;;0.54;56.52
63285;BME280;49409;55.708;37.522;2022-12-18T14:01:54;99628.66;;;0.83;56.17
63285;BME280;49409;55.708;37.522;2022-12-18T14:04:26;99638.91;;;0.89;56.02
63285;BME280;49409;55.708;37.522;2022-12-18T14:06:56;99655.91;;;1.02;56.08
63285;BME280;49409;55.708;37.522;2022-12-18T14:09:29;99611.28;;;0.55;56.06
63285;BME280;49409;55.708;37.522;2022-12-18T14:11:55;99652.56;;;0.52;56.46
63285;BME280;49409;55.708;37.522;2022-12-18T14:14:44;99656.56;;;0.71;55.76
63285;BME280;49409;55.708;37.522;2022-12-18T14:17:14;99648.59;;;0.62;55.99
63285;BME280;49409;55.708;37.522;2022-12-18T14:19:47;99670.38;;;0.66;55.91
63285;BME280;49409;55.708;37.522;2022-12-18T14:22:19;99667.38;;;0.43;56.46
63285;BME280;49409;55.708;37.522;2022-12-18T14:24:46;99660.28;;;0.13;56.89
63285;BME280;49409;55.708;37.522;2022-12-18T14:27:20;99682.59;;;0.35;56.26
63285;BME280;49409;55.708;37.522;2022-12-18T14:29:46;99692.88;;;0.42;55.29
63285;BME280;49409;55.708;37.522;2022-12-18T14:32:15;99688.59;;;0.28;56.00
63285;BME280;49409;55.708;37.522;2022-12-18T14:34:47;99699.53;;;0.32;55.46
63285;BME280;49409;55.708;37.522;2022-12-18T14:37:15;99696.47;;;0.33;55.27
63285;BME280;49409;55.708;37.522;2022-12-18T14:39:52;99702.34;;;0.23;55.63
63285;BME280;49409;55.708;37.522;2022-12-18T14:42:18;99709.91;;;0.42;54.50
63285;BME280;49409;55.708;37.522;2022-12-18T14:44:43;99720.72;;;0.42;54.84
63285;BME280;49409;55.708;37.522;2022-12-18T14:47:14;99719.16;;;0.53;55.71
63285;BME280;49409;55.708;37.522;2022-12-18T14:49:41;99705.69;;;0.69;53.95
63285;BME280;49409;55.708;37.522;2022-12-18T14:52:28;99718.94;;;0.34;54.79
63285;BME280;49409;55.708;37.522;2022-12-18T14:54:56;99748.72;;;0.34;54.07
63285;BME280;49409;55.708;37.522;2022-12-18T14:57:25;99727.72;;;0.06;54.70
63285;BME280;49409;55.708;37.522;2022-12-18T14:59:52;99738.31;;;-0.01;55.15
63285;BME280;49409;55.708;37.522;2022-12-18T15:02:25;99761.56;;;0.12;55.06
63285;BME280;49409;55.708;37.522;2022-12-18T15:07:27;99756.13;;;0.25;53.82
63285;BME280;49409;55.708;37.522;2022-12-18T15:12:44;99732.00;;;0.19;54.41
63285;BME280;49409;55.708;37.522;2022-12-18T15:20:54;99751.50;;;-0.12;54.58
63285;BME280;49409;55.708;37.522;2022-12-18T15:23:30;99765.16;;;0.04;53.51
63285;BME280;49409;55.708;37.522;2022-12-18T15:26:01;99787.56;;;0.05;53.99